Time;durP1;ratioP1;P1;durP2;ratioP2;P2;SDS_P1;SDS_P2;PMS_P1;PMS_P2;Temp;Humidity;BMP_temperature;BMP_pressure;BME280_temperature;BME280_humidity;BME280_pressure;Samples;Min_cycle;Max_cycle;Signal;HPM_P1;HPM_P2
2022/06/20 00:01:41;;;;;;;5.15;1.30;;;13.40;99.90;;;;;;5065191;28;20036;-62
2022/06/20 00:04:15;;;;;;;5.82;1.10;;;13.40;99.90;;;;;;5065112;28;20119;-63
2022/06/20 00:06:41;;;;;;;6.32;1.35;;;13.40;99.90;;;;;;5067973;28;20052;-63
2022/06/20 00:09:07;;;;;;;6.05;1.20;;;13.40;99.90;;;;;;5067557;28;20036;-63
2022/06/20 00:11:41;;;;;;;3.83;1.00;;;13.30;99.90;;;;;;5069897;28;20437;-64
2022/06/20 00:14:12;;;;;;;6.47;1.25;;;13.30;99.90;;;;;;5070989;28;20037;-63
2022/06/20 00:16:37;;;;;;;5.68;1.30;;;13.20;99.90;;;;;;5068852;28;20055;-63
2022/06/20 00:19:03;;;;;;;5.70;1.30;;;13.20;99.90;;;;;;5068231;28;20053;-63
2022/06/20 00:21:30;;;;;;;3.08;1.17;;;13.20;99.90;;;;;;5070901;28;20040;-65
2022/06/20 00:23:56;;;;;;;6.60;1.33;;;13.10;99.90;;;;;;5071465;28;20040;-63
2022/06/20 00:26:22;;;;;;;9.13;1.23;;;13.00;99.90;;;;;;5071763;28;20024;-63
2022/06/20 00:28:49;;;;;;;4.88;1.17;;;13.00;99.90;;;;;;5069835;28;20044;-63
2022/06/20 00:31:15;;;;;;;4.93;1.50;;;13.00;99.90;;;;;;5070615;28;20454;-63
2022/06/20 00:33:41;;;;;;;5.90;1.23;;;13.00;99.90;;;;;;5069656;28;20068;-63
2022/06/20 00:36:07;;;;;;;8.52;1.17;;;13.00;99.90;;;;;;5070744;28;20453;-63
2022/06/20 00:38:35;;;;;;;5.75;1.33;;;12.90;99.90;;;;;;5070516;28;20051;-63
2022/06/20 00:41:06;;;;;;;5.65;1.17;;;12.90;99.90;;;;;;5071695;28;20040;-64
2022/06/20 00:43:37;;;;;;;5.18;1.27;;;12.80;99.90;;;;;;5069791;28;20040;-63
2022/06/20 00:46:07;;;;;;;4.85;0.98;;;12.80;99.90;;;;;;5070407;28;20036;-63
2022/06/20 00:48:50;;;;;;;5.50;1.10;;;12.80;99.90;;;;;;5070852;28;20037;-64
2022/06/20 00:51:19;;;;;;;;;;;12.90;99.90;;;;;;5070398;28;20468;-63
2022/06/20 00:53:53;;;;;;;5.45;1.15;;;12.90;99.90;;;;;;5070609;28;19916;-63
2022/06/20 00:56:27;;;;;;;5.65;1.13;;;12.90;99.90;;;;;;5070369;28;20044;-63
2022/06/20 00:59:00;;;;;;;4.78;1.73;;;12.90;99.90;;;;;;5069582;28;20044;-63
2022/06/20 01:01:33;;;;;;;;;;;12.90;99.90;;;;;;5070278;28;20052;-63
2022/06/20 01:04:15;;;;;;;5.10;1.20;;;12.90;99.90;;;;;;5069021;28;19928;-63
2022/06/20 01:06:47;;;;;;;5.03;1.10;;;12.90;99.90;;;;;;5053080;28;20048;-63
2022/06/20 01:09:15;;;;;;;6.15;1.60;;;12.90;99.90;;;;;;5069977;28;20110;-64
2022/06/20 01:11:48;;;;;;;5.18;1.25;;;12.90;99.90;;;;;;5069440;28;20047;-63
2022/06/20 01:14:38;;;;;;;6.72;1.60;;;12.90;99.90;;;;;;5069083;28;20048;-63
2022/06/20 01:17:36;;;;;;;6.57;1.33;;;12.90;99.90;;;;;;5068877;28;20041;-63
2022/06/20 01:20:18;;;;;;;6.05;1.48;;;12.90;99.90;;;;;;5068555;28;20041;-63
2022/06/20 01:23:05;;;;;;;8.48;1.92;;;12.90;99.90;;;;;;5070383;28;20072;-63
2022/06/20 01:25:49;;;;;;;5.13;1.30;;;12.90;99.90;;;;;;5069661;28;20062;-63
2022/06/20 01:28:20;;;;;;;8.77;1.75;;;12.90;99.90;;;;;;5070763;28;20115;-63
2022/06/20 01:30:47;;;;;;;6.63;1.60;;;12.90;99.90;;;;;;5068351;28;20070;-63
2022/06/20 01:33:16;;;;;;;7.85;1.45;;;12.90;99.90;;;;;;5071008;28;20119;-62
2022/06/20 01:38:28;;;;;;;6.35;1.40;;;12.90;99.90;;;;;;5070488;28;20055;-63
2022/06/20 01:43:40;;;;;;;6.82;1.40;;;12.90;99.90;;;;;;5068380;28;20048;-63
2022/06/20 01:46:09;;;;;;;5.55;1.65;;;12.90;99.90;;;;;;5067767;28;20047;-63
2022/06/20 01:48:57;;;;;;;6.53;1.30;;;12.90;99.90;;;;;;5052706;28;20040;-63
2022/06/20 01:51:39;;;;;;;8.13;2.03;;;12.90;99.90;;;;;;5063936;28;20043;-62
2022/06/20 01:54:07;;;;;;;5.20;1.40;;;12.90;99.90;;;;;;5068235;28;20068;-63
2022/06/20 01:56:33;;;;;;;6.72;1.77;;;12.90;99.90;;;;;;5069884;28;20111;-63
2022/06/20 01:59:08;;;;;;;4.43;1.40;;;12.90;99.90;;;;;;5069080;28;20121;-63
2022/06/20 02:01:37;;;;;;;6.70;1.40;;;12.80;99.90;;;;;;5066845;28;20044;-63
2022/06/20 02:04:06;;;;;;;5.13;1.55;;;12.80;99.90;;;;;;5068716;28;20078;-63
2022/06/20 02:06:33;;;;;;;6.57;1.50;;;12.80;99.90;;;;;;5067866;28;20036;-62
2022/06/20 02:08:59;;;;;;;6.97;1.90;;;12.70;99.90;;;;;;5081568;28;20454;-63
2022/06/20 02:11:27;;;;;;;7.55;2.08;;;12.70;99.90;;;;;;5068509;28;20048;-63
2022/06/20 02:13:59;;;;;;;7.80;1.88;;;12.70;99.90;;;;;;5069155;28;20471;-63
2022/06/20 02:16:26;;;;;;;7.57;1.70;;;12.70;99.90;;;;;;5066099;28;20377;-64
2022/06/20 02:18:58;;;;;;;6.45;1.45;;;12.60;99.90;;;;;;5065177;28;20044;-63
2022/06/20 02:21:28;;;;;;;8.27;1.80;;;12.50;99.90;;;;;;5066990;28;20110;-62
2022/06/20 02:24:01;;;;;;;5.97;2.00;;;12.50;99.90;;;;;;5065750;28;20040;-63
2022/06/20 02:26:29;;;;;;;4.50;1.42;;;12.50;99.90;;;;;;5070123;28;20041;-64
2022/06/20 02:29:09;;;;;;;6.57;1.90;;;12.50;99.90;;;;;;5069426;28;20089;-62
2022/06/20 02:31:35;;;;;;;5.35;1.80;;;12.50;99.90;;;;;;5069753;28;20070;-63
2022/06/20 02:34:02;;;;;;;6.88;1.80;;;12.40;99.90;;;;;;5065734;28;20494;-62
2022/06/20 02:36:29;;;;;;;5.47;1.52;;;12.40;99.90;;;;;;5069674;28;20111;-63
2022/06/20 02:38:55;;;;;;;4.50;1.27;;;12.30;99.90;;;;;;5068472;28;20404;-63
2022/06/20 02:41:23;;;;;;;8.48;2.10;;;12.20;99.90;;;;;;5068487;28;20041;-63
2022/06/20 02:43:56;;;;;;;4.22;1.42;;;12.20;99.90;;;;;;5067771;28;20399;-62
2022/06/20 02:46:25;;;;;;;6.35;1.80;;;12.20;99.90;;;;;;5067710;28;20040;-63
2022/06/20 02:48:52;;;;;;;4.15;1.40;;;12.10;99.90;;;;;;5068392;28;20111;-63
2022/06/20 02:51:24;;;;;;;5.20;1.30;;;12.10;99.90;;;;;;5067958;28;20063;-63
2022/06/20 02:53:57;;;;;;;4.68;1.50;;;12.00;99.90;;;;;;5068526;28;20036;-63
2022/06/20 02:56:24;;;;;;;;;;;12.00;99.90;;;;;;5066671;28;20108;-63
2022/06/20 02:58:58;;;;;;;5.75;1.98;;;12.00;99.90;;;;;;5068003;28;19923;-63
2022/06/20 03:01:40;;;;;;;7.28;1.80;;;11.90;99.90;;;;;;5067309;28;20052;-63
2022/06/20 03:04:08;;;;;;;5.60;1.70;;;11.90;99.90;;;;;;5067972;28;20062;-63
2022/06/20 03:06:40;;;;;;;6.15;1.80;;;11.80;99.90;;;;;;5068011;28;20403;-63
2022/06/20 03:09:06;;;;;;;3.55;1.92;;;11.80;99.90;;;;;;5068806;28;20032;-63
2022/06/20 03:11:36;;;;;;;4.53;1.65;;;11.80;99.90;;;;;;5068739;28;20047;-63
2022/06/20 03:14:06;;;;;;;6.85;1.90;;;11.80;99.90;;;;;;5068506;28;20040;-63
2022/06/20 03:16:32;;;;;;;8.13;1.73;;;11.80;99.90;;;;;;5067787;28;20044;-62
2022/06/20 03:19:00;;;;;;;6.28;1.90;;;11.70;99.90;;;;;;5067476;28;20125;-64
2022/06/20 03:21:31;;;;;;;4.47;1.70;;;11.70;99.90;;;;;;5066947;28;20097;-63
2022/06/20 03:23:57;;;;;;;4.72;1.75;;;11.70;99.90;;;;;;5067688;28;20043;-62
2022/06/20 03:26:27;;;;;;;8.77;2.13;;;11.60;99.90;;;;;;5065951;28;20044;-63
2022/06/20 03:28:54;;;;;;;3.80;1.70;;;11.60;99.90;;;;;;5069038;28;20375;-63
2022/06/20 03:31:20;;;;;;;6.10;1.63;;;11.60;99.90;;;;;;5084401;28;20494;-62
2022/06/20 03:33:46;;;;;;;5.05;1.73;;;11.60;99.90;;;;;;5067666;28;20174;-63
2022/06/20 03:36:24;;;;;;;7.88;1.88;;;11.50;99.90;;;;;;5068081;28;20037;-64
2022/06/20 03:38:51;;;;;;;5.32;2.00;;;11.50;99.90;;;;;;5067150;28;20127;-63
2022/06/20 03:41:26;;;;;;;6.10;1.90;;;11.50;99.90;;;;;;5067220;28;20545;-63
2022/06/20 03:44:00;;;;;;;5.13;1.60;;;11.50;99.90;;;;;;5064695;28;20097;-64
2022/06/20 03:46:43;;;;;;;8.15;2.05;;;11.50;99.90;;;;;;5069014;28;20033;-63
2022/06/20 03:49:15;;;;;;;5.85;1.80;;;11.50;99.90;;;;;;5069991;28;20082;-63
2022/06/20 03:51:54;;;;;;;7.53;1.98;;;11.50;99.90;;;;;;5069773;28;20041;-63
2022/06/20 03:54:40;;;;;;;6.85;1.88;;;11.60;99.90;;;;;;5085784;28;20056;-64
2022/06/20 03:57:20;;;;;;;5.03;1.77;;;11.60;99.90;;;;;;5070146;28;20109;-63
2022/06/20 04:00:00;;;;;;;4.63;1.70;;;11.70;99.90;;;;;;5071857;28;20044;-63
2022/06/20 04:02:56;;;;;;;6.32;1.80;;;11.70;99.90;;;;;;5070068;28;20044;-62
2022/06/20 04:05:29;;;;;;;4.90;1.80;;;11.70;99.90;;;;;;5070219;28;20051;-63
2022/06/20 04:08:14;;;;;;;4.32;1.70;;;11.70;99.90;;;;;;5067922;28;20032;-65
2022/06/20 04:11:01;;;;;;;4.60;2.08;;;11.80;99.90;;;;;;5070020;28;20037;-63
2022/06/20 04:13:38;;;;;;;6.60;2.03;;;11.80;99.90;;;;;;5069530;28;20052;-64
2022/06/20 04:16:13;;;;;;;5.00;1.83;;;11.80;99.90;;;;;;5071057;28;20048;-63
2022/06/20 04:18:44;;;;;;;4.40;1.80;;;11.90;99.90;;;;;;5071636;28;20048;-63
2022/06/20 04:21:23;;;;;;;5.03;1.52;;;11.90;99.90;;;;;;5070911;28;20048;-63
2022/06/20 04:24:04;;;;;;;5.70;1.92;;;12.00;99.90;;;;;;5070000;28;20054;-62
2022/06/20 04:26:42;;;;;;;5.88;1.90;;;12.00;99.90;;;;;;5069731;28;20044;-63
2022/06/20 04:29:17;;;;;;;3.17;1.52;;;12.10;99.90;;;;;;5069230;28;20429;-62
2022/06/20 04:32:03;;;;;;;4.97;1.70;;;12.20;99.90;;;;;;5071998;28;20124;-64
2022/06/20 04:34:43;;;;;;;4.10;1.52;;;12.20;99.90;;;;;;5070342;28;20055;-63
2022/06/20 04:37:38;;;;;;;3.97;1.77;;;12.30;99.90;;;;;;5071350;28;20056;-62
2022/06/20 04:40:13;;;;;;;5.63;2.15;;;12.50;99.90;;;;;;5069565;28;20415;-62
2022/06/20 04:43:33;;;;;;;4.90;1.90;;;12.60;99.90;;;;;;5070619;28;20198;-63
2022/06/20 04:46:27;;;;;;;4.57;1.65;;;12.70;99.90;;;;;;4991906;28;20034;-63
2022/06/20 04:48:53;;;;;;;6.25;1.48;;;12.80;99.90;;;;;;5000743;28;20045;-63
2022/06/20 04:51:35;;;;;;;6.45;1.92;;;12.90;99.90;;;;;;4977805;28;20105;-62
2022/06/20 04:54:03;;;;;;;5.97;1.83;;;12.90;99.90;;;;;;4998460;28;20058;-62
2022/06/20 04:56:29;;;;;;;7.20;1.90;;;12.90;99.90;;;;;;4994646;28;20049;-62
2022/06/20 04:59:00;;;;;;;7.38;1.60;;;12.90;99.90;;;;;;4990994;28;20041;-64
2022/06/20 05:01:28;;;;;;;4.78;1.52;;;13.00;99.90;;;;;;4981605;28;20204;-62
2022/06/20 05:03:59;;;;;;;5.05;1.70;;;13.10;99.90;;;;;;4982143;28;20515;-63
2022/06/20 05:06:30;;;;;;;3.83;1.40;;;13.20;99.90;;;;;;4981257;28;20509;-63
2022/06/20 05:09:03;;;;;;;7.50;1.73;;;13.20;99.90;;;;;;4969401;28;20201;-63
2022/06/20 05:11:52;;;;;;;5.38;1.63;;;13.40;99.90;;;;;;4980768;28;20481;-63
2022/06/20 05:14:31;;;;;;;5.35;1.45;;;13.50;99.90;;;;;;4990265;28;20459;-63
2022/06/20 05:16:57;;;;;;;4.65;2.10;;;13.70;99.90;;;;;;4979926;28;20038;-63
2022/06/20 05:19:33;;;;;;;5.85;1.77;;;13.80;99.90;;;;;;5011197;28;20056;-62
2022/06/20 05:22:02;;;;;;;6.53;1.90;;;13.90;99.90;;;;;;5070122;28;20056;-63
2022/06/20 05:24:33;;;;;;;6.10;1.77;;;13.90;99.90;;;;;;5071093;28;20120;-63
2022/06/20 05:27:02;;;;;;;6.82;1.70;;;14.00;99.90;;;;;;5068567;28;20043;-63
2022/06/20 05:29:33;;;;;;;7.45;2.33;;;14.10;99.90;;;;;;5070972;28;20047;-64
2022/06/20 05:32:02;;;;;;;5.85;2.08;;;14.20;99.90;;;;;;5069074;28;20533;-63
2022/06/20 05:34:40;;;;;;;8.55;1.90;;;14.30;99.90;;;;;;5065339;28;20398;-63
2022/06/20 05:37:15;;;;;;;5.38;1.80;;;14.40;99.90;;;;;;5068075;28;20513;-63
2022/06/20 05:39:49;;;;;;;5.63;1.88;;;14.50;99.90;;;;;;5066971;28;20048;-62
2022/06/20 05:42:17;;;;;;;8.73;1.70;;;14.60;99.90;;;;;;5065900;28;20478;-63
2022/06/20 05:44:43;;;;;;;6.40;2.25;;;14.70;99.90;;;;;;5068566;28;20048;-64
2022/06/20 05:47:23;;;;;;;8.63;2.33;;;14.70;99.90;;;;;;5067869;28;20403;-63
2022/06/20 05:50:00;;;;;;;9.15;2.50;;;14.80;99.90;;;;;;5068951;28;20045;-62
2022/06/20 05:52:27;;;;;;;8.50;2.40;;;15.00;99.90;;;;;;5069843;28;20035;-62
2022/06/20 05:55:03;;;;;;;8.02;2.50;;;15.10;99.90;;;;;;5069616;28;20041;-62
2022/06/20 05:57:30;;;;;;;8.60;2.00;;;15.20;99.90;;;;;;5068794;28;20085;-63
2022/06/20 06:00:04;;;;;;;7.85;2.53;;;15.30;99.90;;;;;;5068050;28;20109;-62
2022/06/20 06:02:39;;;;;;;9.02;2.55;;;15.40;99.90;;;;;;5066631;28;20036;-63
2022/06/20 06:05:16;;;;;;;11.10;3.22;;;15.40;99.90;;;;;;5069168;28;20071;-63
2022/06/20 06:07:48;;;;;;;9.55;2.80;;;15.50;99.90;;;;;;5068286;28;20071;-61
2022/06/20 06:10:32;;;;;;;18.20;2.72;;;15.60;99.90;;;;;;5066457;28;20116;-62
2022/06/20 06:13:17;;;;;;;10.35;2.70;;;15.60;99.90;;;;;;5069036;28;20047;-63
2022/06/20 06:19:14;;;;;;;8.70;2.83;;;15.70;99.90;;;;;;5067697;28;20048;-62
2022/06/20 06:21:41;;;;;;;10.73;2.85;;;15.80;99.90;;;;;;5069994;28;20040;-63
2022/06/20 06:24:11;;;;;;;7.10;2.58;;;15.90;99.90;;;;;;5049176;28;20155;-63
2022/06/20 06:26:39;;;;;;;8.65;2.60;;;16.00;99.90;;;;;;5062811;28;20414;-63
2022/06/20 06:29:12;;;;;;;6.20;2.42;;;16.10;99.90;;;;;;5066532;28;20426;-63
2022/06/20 06:31:40;;;;;;;;;;;16.00;99.90;;;;;;5068001;28;20485;-63
2022/06/20 06:34:52;;;;;;;6.72;2.33;;;15.90;99.90;;;;;;5066814;28;19920;-63
2022/06/20 06:37:31;;;;;;;10.75;2.67;;;16.00;99.90;;;;;;5065526;28;20132;-63
2022/06/20 06:40:18;;;;;;;17.27;2.83;;;16.00;99.90;;;;;;5068412;28;20083;-63
2022/06/20 06:42:46;;;;;;;9.75;2.95;;;16.10;99.90;;;;;;5067616;28;20053;-64
2022/06/20 06:45:21;;;;;;;6.72;2.70;;;15.80;99.90;;;;;;5067596;28;20045;-63
2022/06/20 06:47:59;;;;;;;11.70;2.80;;;15.60;99.90;;;;;;5067825;28;20047;-64
2022/06/20 06:50:41;;;;;;;10.25;2.75;;;15.50;99.90;;;;;;5068037;28;20044;-63
2022/06/20 06:53:37;;;;;;;10.75;2.42;;;15.50;99.90;;;;;;5069468;28;20545;-63
2022/06/20 06:56:33;;;;;;;10.93;2.40;;;15.40;99.90;;;;;;5025865;28;20542;-64
2022/06/20 06:59:16;;;;;;;7.93;2.47;;;15.30;99.90;;;;;;5026917;28;20113;-63
2022/06/20 07:01:47;;;;;;;10.73;2.47;;;15.40;99.90;;;;;;5027037;28;20072;-64
2022/06/20 07:04:20;;;;;;;9.13;2.83;;;15.80;99.90;;;;;;5010537;28;20069;-63
2022/06/20 07:06:58;;;;;;;9.52;2.47;;;16.20;99.90;;;;;;5010570;28;20487;-64
2022/06/20 07:09:34;;;;;;;6.60;2.20;;;16.40;99.90;;;;;;5006653;28;20081;-63
2022/06/20 07:12:16;;;;;;;7.47;2.35;;;16.40;99.90;;;;;;5026787;28;20103;-63
2022/06/20 07:14:44;;;;;;;7.53;2.33;;;16.60;99.90;;;;;;5005016;28;20068;-63
2022/06/20 07:17:42;;;;;;;7.28;1.88;;;16.70;99.90;;;;;;5026490;28;20107;-63
2022/06/20 07:20:09;;;;;;;6.88;2.40;;;16.80;99.90;;;;;;5012801;28;20483;-62
2022/06/20 07:22:38;;;;;;;9.20;2.35;;;17.00;99.90;;;;;;5013353;28;20033;-63
2022/06/20 07:25:05;;;;;;;8.82;2.55;;;17.00;99.90;;;;;;5010623;28;20523;-63
2022/06/20 07:27:37;;;;;;;7.82;2.50;;;17.20;99.90;;;;;;5012469;28;20041;-64
2022/06/20 07:30:13;;;;;;;11.07;2.95;;;17.50;99.90;;;;;;5027854;28;20052;-63
2022/06/20 07:32:57;;;;;;;8.60;2.05;;;17.60;99.90;;;;;;5042762;28;20049;-63
2022/06/20 07:35:45;;;;;;;7.38;2.33;;;17.60;99.90;;;;;;5065172;28;20041;-64
2022/06/20 07:38:36;;;;;;;10.18;2.72;;;17.30;99.90;;;;;;5084422;28;20057;-63
2022/06/20 07:41:09;;;;;;;8.63;2.10;;;17.30;99.90;;;;;;5068846;28;20049;-64
2022/06/20 07:43:54;;;;;;;9.60;2.20;;;17.30;99.90;;;;;;5070401;28;20041;-64
2022/06/20 07:46:38;;;;;;;8.50;1.58;;;17.50;99.90;;;;;;5055116;28;20045;-64
2022/06/20 07:49:15;;;;;;;5.03;1.67;;;17.70;99.90;;;;;;5053729;28;20131;-64
2022/06/20 07:51:45;;;;;;;5.47;1.90;;;17.90;99.90;;;;;;5055924;28;20085;-62
2022/06/20 07:54:26;;;;;;;6.05;2.03;;;17.80;99.90;;;;;;5070889;28;20078;-64
2022/06/20 07:56:57;;;;;;;5.53;2.03;;;18.10;99.90;;;;;;5069499;28;20041;-65
2022/06/20 07:59:33;;;;;;;8.00;1.90;;;18.20;99.90;;;;;;5072230;28;20058;-64
2022/06/20 08:02:03;;;;;;;7.20;1.98;;;18.20;99.90;;;;;;5069861;28;20040;-63
2022/06/20 08:04:34;;;;;;;6.68;2.25;;;18.30;99.90;;;;;;5070915;28;20084;-63
2022/06/20 08:07:13;;;;;;;7.50;2.00;;;18.20;99.90;;;;;;5068266;28;20421;-63
2022/06/20 08:10:05;;;;;;;6.05;1.98;;;18.10;99.90;;;;;;5070679;28;20377;-63
2022/06/20 08:12:45;;;;;;;3.47;1.42;;;18.00;99.90;;;;;;5012195;28;20551;-63
2022/06/20 08:15:22;;;;;;;7.10;2.03;;;18.00;99.90;;;;;;5026503;28;20140;-63
2022/06/20 08:17:48;;;;;;;8.77;2.35;;;17.70;99.90;;;;;;5027283;28;20061;-63
2022/06/20 08:20:16;;;;;;;6.55;2.40;;;17.60;99.90;;;;;;5028446;28;20048;-63
2022/06/20 08:22:53;;;;;;;7.18;1.95;;;17.50;99.90;;;;;;5012078;28;20625;-63
2022/06/20 08:25:27;;;;;;;6.90;2.17;;;17.40;99.90;;;;;;5012772;28;20049;-63
2022/06/20 08:28:20;;;;;;;7.82;2.15;;;17.30;99.90;;;;;;5011112;28;20033;-63
2022/06/20 08:31:08;;;;;;;6.20;1.63;;;17.30;99.90;;;;;;4933862;29;20426;-64
2022/06/20 08:34:14;;;;;;;6.85;1.77;;;17.20;99.90;;;;;;4950282;29;20545;-62
2022/06/20 08:36:51;;;;;;;5.13;2.05;;;17.10;99.90;;;;;;4897235;29;20574;-63
2022/06/20 08:39:23;;;;;;;5.75;2.03;;;17.40;99.90;;;;;;4913195;29;20084;-63
2022/06/20 08:42:19;;;;;;;8.05;1.90;;;17.90;99.90;;;;;;4913393;29;20143;-63
2022/06/20 08:45:06;;;;;;;5.70;1.70;;;18.30;99.90;;;;;;4898156;29;20080;-64
2022/06/20 08:47:53;;;;;;;8.30;1.90;;;18.60;99.90;;;;;;4896925;29;20520;-63
2022/06/20 08:50:42;;;;;;;6.10;1.50;;;18.90;99.90;;;;;;4942646;28;20502;-63
2022/06/20 08:53:45;;;;;;;6.53;1.85;;;18.90;99.60;;;;;;4953369;28;20204;-64
2022/06/20 08:56:37;;;;;;;4.25;1.20;;;18.70;99.90;;;;;;4970701;28;20130;-63
2022/06/20 08:59:38;;;;;;;5.72;1.30;;;18.20;99.90;;;;;;4952899;28;20061;-64
2022/06/20 09:02:13;;;;;;;2.83;1.00;;;18.00;99.90;;;;;;4953707;28;20042;-63
2022/06/20 09:04:56;;;;;;;5.20;1.20;;;17.80;99.90;;;;;;4969691;28;20034;-64
2022/06/20 09:07:22;;;;;;;3.80;1.50;;;18.10;99.90;;;;;;4964417;28;20046;-63
2022/06/20 09:10:00;;;;;;;3.88;1.50;;;18.50;99.90;;;;;;4988354;28;20109;-63
2022/06/20 09:13:12;;;;;;;4.25;1.25;;;18.90;99.90;;;;;;5029637;28;20052;-63
2022/06/20 09:15:56;;;;;;;8.60;1.67;;;19.40;99.90;;;;;;5067968;28;20182;-63
2022/06/20 09:18:55;;;;;;;6.38;1.60;;;19.90;99.90;;;;;;5067448;28;20479;-63
2022/06/20 09:21:40;;;;;;;4.38;1.23;;;20.10;97.70;;;;;;5070588;28;20076;-63
2022/06/20 09:24:27;;;;;;;3.45;1.02;;;19.80;96.10;;;;;;5069043;28;20520;-62
2022/06/20 09:27:08;;;;;;;4.10;1.58;;;19.50;96.40;;;;;;5052705;28;20402;-65
2022/06/20 09:29:49;;;;;;;5.50;1.25;;;19.10;97.10;;;;;;5069303;28;20115;-63
2022/06/20 09:32:34;;;;;;;3.25;1.10;;;18.60;97.60;;;;;;5068678;28;20044;-63
2022/06/20 09:35:08;;;;;;;6.28;1.20;;;18.30;98.60;;;;;;5069252;28;20094;-65
2022/06/20 09:38:10;;;;;;;11.10;2.42;;;18.60;99.70;;;;;;5066856;28;20045;-63
2022/06/20 09:40:44;;;;;;;9.43;1.98;;;19.00;99.50;;;;;;5066572;28;20111;-63
2022/06/20 09:43:28;;;;;;;6.45;1.85;;;19.50;99.30;;;;;;5067808;28;20036;-63
2022/06/20 09:46:12;;;;;;;6.95;1.70;;;19.90;98.90;;;;;;5068017;28;20115;-63
2022/06/20 09:48:49;;;;;;;8.70;1.85;;;19.90;97.30;;;;;;5068680;28;20140;-63
2022/06/20 09:51:26;;;;;;;5.47;1.27;;;19.70;97.70;;;;;;5068733;28;20044;-64
2022/06/20 09:54:11;;;;;;;6.50;1.45;;;19.30;97.20;;;;;;5070267;28;20044;-63
2022/06/20 09:57:01;;;;;;;4.75;1.30;;;19.50;98.50;;;;;;5069538;28;20056;-65
2022/06/20 09:59:57;;;;;;;3.00;1.20;;;20.00;98.20;;;;;;5069975;28;20041;-63
2022/06/20 10:02:35;;;;;;;4.55;1.30;;;20.30;98.20;;;;;;5065972;28;20043;-63
2022/06/20 10:05:21;;;;;;;4.65;1.73;;;19.90;97.00;;;;;;5084508;28;20032;-63
2022/06/20 10:07:55;;;;;;;3.72;1.08;;;19.70;95.50;;;;;;5068612;28;20149;-63
2022/06/20 10:10:33;;;;;;;3.20;1.10;;;19.60;96.60;;;;;;5068718;28;20048;-63
2022/06/20 10:13:02;;;;;;;6.15;1.63;;;19.30;96.60;;;;;;5066606;28;20044;-63
2022/06/20 10:15:40;;;;;;;7.28;1.50;;;19.20;97.20;;;;;;5067302;28;20047;-64
2022/06/20 10:18:20;;;;;;;5.45;1.45;;;19.30;97.40;;;;;;5066771;28;20115;-64
2022/06/20 10:21:15;;;;;;;5.65;1.35;;;19.20;97.40;;;;;;5070202;28;20044;-64
2022/06/20 10:23:48;;;;;;;9.93;1.35;;;19.00;97.60;;;;;;5070001;28;20036;-64
2022/06/20 10:26:32;;;;;;;7.88;2.05;;;18.80;98.00;;;;;;5068125;28;20052;-63
2022/06/20 10:29:22;;;;;;;5.97;1.50;;;19.30;99.00;;;;;;5052338;28;20053;-66
2022/06/20 10:32:10;;;;;;;7.22;1.58;;;19.80;98.90;;;;;;5068883;28;20086;-64
2022/06/20 10:34:54;;;;;;;5.20;1.35;;;20.20;97.30;;;;;;5068805;28;20048;-64
2022/06/20 10:37:29;;;;;;;4.68;1.40;;;20.30;95.70;;;;;;5069699;28;20051;-63
2022/06/20 10:40:12;;;;;;;7.03;1.20;;;20.60;96.60;;;;;;5068515;28;20032;-62
2022/06/20 10:42:49;;;;;;;3.17;1.23;;;20.90;97.00;;;;;;5069791;28;20110;-64
2022/06/20 10:45:33;;;;;;;7.38;1.52;;;21.10;95.70;;;;;;5068675;28;20036;-64
2022/06/20 10:48:21;;;;;;;3.22;1.30;;;21.10;96.30;;;;;;5069506;28;20036;-63
2022/06/20 10:50:55;;;;;;;4.88;1.08;;;21.10;96.60;;;;;;5067487;28;20041;-64
2022/06/20 10:53:47;;;;;;;4.55;1.08;;;21.30;95.90;;;;;;5068081;28;20495;-64
2022/06/20 10:56:41;;;;;;;3.35;1.10;;;21.40;94.40;;;;;;5061469;28;20060;-64
2022/06/20 10:59:27;;;;;;;5.63;1.45;;;21.50;94.00;;;;;;5068073;28;20053;-64
2022/06/20 11:02:08;;;;;;;4.32;1.20;;;21.70;94.90;;;;;;5068391;28;20487;-64
2022/06/20 11:04:56;;;;;;;4.28;1.35;;;21.70;94.20;;;;;;5068129;28;20063;-64
2022/06/20 11:07:54;;;;;;;7.70;1.58;;;21.20;94.00;;;;;;5064943;28;20434;-65
2022/06/20 11:10:39;;;;;;;5.13;1.30;;;20.70;94.80;;;;;;5064346;28;20056;-64
2022/06/20 11:13:14;;;;;;;6.57;1.40;;;20.20;95.30;;;;;;5069381;28;20127;-63
2022/06/20 11:16:26;;;;;;;3.78;1.55;;;20.40;96.30;;;;;;5067758;28;20049;-64
2022/06/20 11:19:21;;;;;;;5.80;1.30;;;20.60;95.90;;;;;;5026936;28;20140;-64
2022/06/20 11:22:07;;;;;;;6.57;1.40;;;20.80;95.40;;;;;;5009175;28;20073;-64
2022/06/20 11:24:49;;;;;;;7.57;1.60;;;20.90;95.30;;;;;;5010378;28;20044;-64
2022/06/20 11:27:21;;;;;;;5.20;1.30;;;21.10;95.50;;;;;;5026672;28;20103;-64
2022/06/20 11:30:18;;;;;;;6.65;1.88;;;21.00;95.10;;;;;;5025721;28;20052;-62
2022/06/20 11:33:05;;;;;;;6.65;1.70;;;21.30;96.10;;;;;;5026256;28;20037;-64
2022/06/20 11:35:41;;;;;;;4.20;1.45;;;21.30;95.90;;;;;;5008841;28;20049;-64
2022/06/20 11:38:43;;;;;;;8.35;1.92;;;20.60;95.40;;;;;;5026069;28;20049;-64
2022/06/20 11:41:17;;;;;;;6.95;1.50;;;20.40;95.60;;;;;;5026232;28;20088;-63
2022/06/20 11:44:06;;;;;;;4.75;1.30;;;20.40;95.00;;;;;;5026920;28;20068;-64
2022/06/20 11:46:53;;;;;;;4.63;1.40;;;20.30;94.90;;;;;;5010691;28;20524;-64
2022/06/20 11:49:37;;;;;;;4.45;1.25;;;20.30;95.10;;;;;;5026834;28;20046;-64
2022/06/20 11:52:38;;;;;;;5.68;1.80;;;20.20;95.70;;;;;;5026382;28;20037;-64
2022/06/20 11:55:21;;;;;;;4.93;1.35;;;20.00;95.90;;;;;;5054045;28;20139;-63
2022/06/20 11:57:56;;;;;;;5.90;1.50;;;20.10;95.60;;;;;;5069179;28;20048;-64
2022/06/20 12:00:46;;;;;;;5.43;1.42;;;20.20;94.70;;;;;;5068666;28;20052;-63
2022/06/20 12:03:30;;;;;;;6.10;1.30;;;20.10;95.20;;;;;;5068329;28;20509;-63
2022/06/20 12:06:05;;;;;;;9.50;1.50;;;20.10;94.90;;;;;;5070562;28;20123;-63
2022/06/20 12:08:44;;;;;;;5.90;1.40;;;20.20;96.10;;;;;;5071583;28;20072;-63
2022/06/20 12:11:27;;;;;;;4.88;1.65;;;20.20;96.10;;;;;;5071546;28;20077;-63
2022/06/20 12:14:34;;;;;;;7.07;1.90;;;20.20;96.20;;;;;;5072627;28;20390;-63
2022/06/20 12:17:28;;;;;;;5.10;1.55;;;19.80;95.80;;;;;;5054481;28;20059;-64
2022/06/20 12:26:05;;;;;;;4.85;1.30;;;19.70;96.60;;;;;;5070499;28;20075;-65
2022/06/20 12:28:41;;;;;;;3.53;1.00;;;19.60;95.40;;;;;;5070802;28;20047;-64
2022/06/20 12:31:30;;;;;;;4.30;1.10;;;19.50;95.30;;;;;;5072205;28;20048;-64
2022/06/20 12:34:05;;;;;;;4.10;1.33;;;19.60;93.90;;;;;;5070764;28;20040;-64
2022/06/20 12:37:02;;;;;;;2.25;1.10;;;19.60;93.70;;;;;;5070693;28;20075;-64
2022/06/20 12:39:38;;;;;;;2.38;1.13;;;19.60;94.20;;;;;;5070876;28;20052;-64
2022/06/20 12:42:16;;;;;;;3.92;1.20;;;19.40;95.00;;;;;;5072069;28;20390;-64
2022/06/20 12:44:50;;;;;;;3.38;1.58;;;19.20;95.20;;;;;;5071638;28;20045;-64
2022/06/20 12:47:37;;;;;;;5.28;1.38;;;19.00;95.40;;;;;;5070451;28;20064;-65
2022/06/20 12:50:22;;;;;;;2.65;1.40;;;19.00;95.90;;;;;;5072025;28;20040;-64
2022/06/20 12:52:47;;;;;;;3.42;1.50;;;19.00;96.70;;;;;;5070504;28;20121;-65
2022/06/20 12:55:13;;;;;;;3.72;1.15;;;19.20;96.30;;;;;;5053926;28;20037;-64
2022/06/20 12:58:18;;;;;;;6.88;1.73;;;19.50;96.40;;;;;;5068136;28;20043;-63
2022/06/20 13:00:51;;;;;;;2.35;1.00;;;19.70;95.80;;;;;;5069960;28;20048;-63
2022/06/20 13:03:52;;;;;;;4.50;1.30;;;19.60;95.60;;;;;;5071328;28;20115;-62
2022/06/20 13:06:27;;;;;;;5.70;1.70;;;19.70;96.50;;;;;;5069336;28;20530;-64
2022/06/20 13:09:10;;;;;;;4.50;1.50;;;19.70;96.80;;;;;;5070597;28;20086;-63
2022/06/20 13:12:05;;;;;;;4.90;1.45;;;19.90;97.30;;;;;;5069825;28;20040;-64
2022/06/20 13:14:37;;;;;;;6.47;1.45;;;19.80;97.10;;;;;;5012393;28;20077;-63
2022/06/20 13:17:14;;;;;;;2.83;1.00;;;19.60;96.50;;;;;;5009846;28;20464;-64
2022/06/20 13:19:49;;;;;;;5.90;1.30;;;19.30;96.10;;;;;;5028489;28;20413;-63
2022/06/20 13:22:24;;;;;;;3.42;1.30;;;19.00;96.00;;;;;;5028822;28;20152;-63
2022/06/20 13:25:11;;;;;;;7.38;1.63;;;18.90;96.10;;;;;;5028654;28;20124;-63
2022/06/20 13:27:54;;;;;;;5.95;1.52;;;18.80;97.00;;;;;;5028280;28;20052;-63
2022/06/20 13:30:29;;;;;;;3.53;1.05;;;18.80;97.30;;;;;;5028705;28;20068;-64
2022/06/20 13:33:16;;;;;;;3.75;1.30;;;18.90;97.20;;;;;;5028364;28;20105;-66
2022/06/20 13:35:52;;;;;;;4.63;1.73;;;18.90;97.30;;;;;;5028849;28;20599;-64
2022/06/20 13:38:23;;;;;;;5.47;1.88;;;18.90;97.30;;;;;;5011969;28;20064;-66
2022/06/20 13:40:49;;;;;;;5.80;1.38;;;18.60;97.20;;;;;;5012074;28;20045;-63
2022/06/20 13:43:24;;;;;;;3.60;1.23;;;18.50;97.20;;;;;;5011908;28;20036;-62
2022/06/20 13:46:00;;;;;;;13.07;1.63;;;18.30;96.40;;;;;;5028745;28;20092;-63
2022/06/20 13:49:01;;;;;;;3.15;1.08;;;18.30;97.00;;;;;;5012257;28;20107;-65
2022/06/20 13:51:38;;;;;;;3.90;1.30;;;18.50;97.20;;;;;;4960610;28;20061;-64
2022/06/20 13:54:29;;;;;;;4.78;1.33;;;18.60;96.90;;;;;;4972756;28;20511;-65
2022/06/20 13:57:04;;;;;;;5.35;1.30;;;18.70;96.70;;;;;;4973197;28;20462;-65
2022/06/20 13:59:57;;;;;;;5.18;1.25;;;18.70;96.90;;;;;;4989053;28;20058;-64